Nearby METAR Reports

KLNK - Lincoln, Nebraska, USA
Distance from station: WNW 8mi, 13km
Updated: Tue, 20-Feb-2018 8:54pm CST
Clear
Clear
 Wind from NNW
Wind: NNW 16 mph , 26 km/h
Temperature: 16°F , -9°C
Wind Chill: 1°F , -17°C
Dew Point: 7°F , -14°C
Humidity: 67%
Barometer: 30.39 inHg , 1029.1 hPa
Clouds: Clear
Visibility: 10 miles , 16 km
2018/02/21 02:54 KLNK 210254Z 34014KT 10SM CLR M09/M14 A3039 RMK AO2 SLP313 T10941139 53027
KAHQ - Wahoo, Nebraska, USA
Distance from station: N 31mi, 49km
Updated: Tue, 20-Feb-2018 9:15pm CST
Clear
Clear
 Wind from NNW
Wind: NNW 15 mph , 24 km/h
Temperature: 12°F , -11°C
Wind Chill: -4°F , -20°C
Dew Point: 7°F , -14°C
Humidity: 79%
Barometer: 30.40 inHg , 1029.5 hPa
Clouds: Clear
Visibility: 10 miles , 16 km
2018/02/21 03:15 KAHQ 210315Z AUTO 34013KT 10SM CLR M11/M14 A3040 RMK AO2 T11061145
 
KBIE - Beatrice Municip, Nebraska, USA
Distance from station: S 36mi, 57km
Updated: Tue, 20-Feb-2018 9:15pm CST
Clear
Clear
 Wind from NNW
Wind: NNW 16 mph , 26 km/h
Temperature: 16°F , -9°C
Wind Chill: 1°F , -17°C
Dew Point: 10°F , -12°C
Humidity: 79%
Barometer: 30.36 inHg , 1028.1 hPa
Clouds: Clear
Visibility: 10 miles , 16 km
2018/02/21 03:15 KBIE 210315Z AUTO 34014KT 10SM CLR M09/M12 A3036 RMK AO2 T10861120
KMLE - Omaha/Millard, Nebraska, USA
Distance from station: NE 39mi, 63km
Updated: Tue, 20-Feb-2018 9:15pm CST
Clear
Clear
 Wind from NNW
Wind: NNW 14 mph , 22 km/h, Gust: 17 mph , 28 km/h
Temperature: 16°F , -9°C
Wind Chill: 2°F , -17°C
Dew Point: 9°F , -13°C
Humidity: 73%
Barometer: 30.40 inHg , 1029.5 hPa
Clouds: Clear
Visibility: 10 miles , 16 km
2018/02/21 03:15 KMLE 210315Z AUTO 33012G15KT 10SM CLR M09/M13 A3040 RMK AO2 T10951135
 
KPMV - Plattsmouth Muni, Nebraska, USA
Distance from station: ENE 39mi, 63km
Updated: Tue, 20-Feb-2018 9:15pm CST
Partly Cloudy
Partly Cloudy
 Wind from NNW
Wind: NNW 13 mph , 20 km/h, Gust: 20 mph , 31 km/h
Temperature: 14°F , -10°C
Wind Chill: -0°F , -18°C
Dew Point: 9°F , -13°C
Humidity: 79%
Barometer: 30.37 inHg , 1028.4 hPa
Clouds: Partly Cloudy
Visibility: 10 miles , 16 km
Cloud details: Partly Cloudy 1800 ft
2018/02/21 03:15 KPMV 210315Z AUTO 33011G17KT 10SM SCT018 M10/M13 A3037 RMK AO2 T10961127
KAFK - Nebraska City, Nebraska, USA
Distance from station: ESE 43mi, 69km
Updated: Tue, 20-Feb-2018 9:15pm CST
Clear
Clear
 Wind from N
Wind: N 16 mph , 26 km/h
Temperature: 16°F , -9°C
Wind Chill: 1°F , -17°C
Dew Point: 12°F , -11°C
Humidity: 86%
Barometer: 30.36 inHg , 1028.1 hPa
Clouds: Clear
Visibility: 10 miles , 16 km
2018/02/21 03:15 KAFK 210315Z AUTO 35014KT 10SM CLR M09/M11 A3036 RMK AO2 T10911115
 
KOFF - Offutt Afb/Belle, Nebraska, USA
Distance from station: ENE 44mi, 70km
Updated: Tue, 20-Feb-2018 8:56pm CST
Clear
Clear
 Wind from NNW
Wind: NNW 12 mph , 19 km/h
Temperature: 14°F , -10°C
Wind Chill: 0°F , -18°C
Dew Point: 7°F , -14°C
Humidity: 73%
Barometer: 30.37 inHg , 1028.4 hPa
Clouds: Clear
Visibility: 10 miles , 16 km
2018/02/21 02:56 KOFF 210256Z AUTO 33010KT 10SM CLR M10/M14 A3037 RMK AO2 SLP309 T10971138 52028 $
KFET - Fremont Muni Arp, Nebraska, USA
Distance from station: N 46mi, 74km
Updated: Tue, 20-Feb-2018 9:15pm CST
Clear
Clear
 Wind from NNW
Wind: NNW 10 mph , 17 km/h
Temperature: 12°F , -11°C
Wind Chill: -1°F , -18°C
Dew Point: 5°F , -15°C
Humidity: 73%
Barometer: 30.40 inHg , 1029.5 hPa
Clouds: Clear
Visibility: 10 miles , 16 km
2018/02/21 03:15 KFET 210315Z AUTO 33009KT 10SM CLR M11/M15 A3040 RMK AO2 T11101146
 
KBTA - Blair Muni, Nebraska, USA
Distance from station: NNE 51mi, 82km
Updated: Tue, 20-Feb-2018 9:15pm CST
Clear
Clear
 Wind from NNW
Wind: NNW 10 mph , 17 km/h
Temperature: 12°F , -11°C
Wind Chill: -1°F , -18°C
Dew Point: 7°F , -14°C
Humidity: 79%
Barometer: 30.37 inHg , 1028.4 hPa
Clouds: Clear
Visibility: 10 miles , 16 km
2018/02/21 03:15 KBTA 210315Z AUTO 34009KT 10SM CLR M11/M14 A3037 RMK AO2 T11071137
KJYR - York, Nebraska, USA
Distance from station: W 52mi, 84km
Updated: Tue, 20-Feb-2018 9:15pm CST
Clear
Clear
 Wind from N
Wind: N 9 mph , 15 km/h
Temperature: 10°F , -12°C
Wind Chill: -3°F , -19°C
Dew Point: 5°F , -15°C
Humidity: 79%
Barometer: 30.38 inHg , 1028.8 hPa
Clouds: Clear
Visibility: 10 miles , 16 km
2018/02/21 03:15 KJYR 210315Z AUTO 35008KT 10SM CLR M12/M15 A3038 RMK AO2
 
KOMA - Omaha/Eppley, Nebraska, USA
Distance from station: NE 53mi, 85km
Updated: Tue, 20-Feb-2018 8:52pm CST
Mostly Cloudy
Mostly Cloudy
 Wind from NNW
Wind: NNW 16 mph , 26 km/h, Gust: 25 mph , 41 km/h
Temperature: 14°F , -10°C
Wind Chill: -2°F , -19°C
Dew Point: 7°F , -14°C
Humidity: 73%
Barometer: 30.38 inHg , 1028.8 hPa
Clouds: Mostly Cloudy
Visibility: 10 miles , 16 km
Cloud details: Mostly Cloudy 25000 ft
2018/02/21 02:52 KOMA 210252Z 33014G22KT 10SM BKN250 M10/M14 A3038 RMK AO2 SLP305 T11001139 53027
KOLU - Columbus Muni, Nebraska, USA
Distance from station: NW 58mi, 93km
Updated: Tue, 20-Feb-2018 8:56pm CST
Clear
Clear
 Wind from NW
Wind: NW 12 mph , 19 km/h
Temperature: 10°F , -12°C
Wind Chill: -5°F , -21°C
Dew Point: 3°F , -16°C
Humidity: 72%
Barometer: 30.38 inHg , 1028.8 hPa
Clouds: Clear
Visibility: 10 miles , 16 km
2018/02/21 02:56 KOLU 210256Z AUTO 32010KT 10SM CLR M12/M16 A3038 RMK AO2 SLP322 T11221156 51023 FZRANO